Terminal Aerodrome Forecast
Issued by NWS Greer, SC

Current Version | Previous Version | Text Only | Print | Product List | Glossary On
Versions: 1 2 3 4 5 6 7 8 9 10 11 12 13 14 15 16 17 18 19 20 21 22 23 24 25 26 27 28
000
FTUS42 KGSP 240209 AAA
TAFAVL
TAF AMD
KAVL 240209Z 2402/2424 16004KT P6SM BKN060
     FM240400 17003KT 6SM -RA SCT012 BKN025
      TEMPO 2404/2408 3SM SHRA BR SCT008 OVC012
     FM240800 VRB03KT 3SM BR SCT006 OVC012
     FM241300 15007KT 5SM BR VCSH OVC015
     FM241800 19009KT P6SM SCT020 OVC035 PROB30 2418/2424 3SM TSRA
      BR OVC020CB=

USA.gov is the U.S. government's official web portal to all federal, state and local government web resources and services.